Hawaii National Park, Hawaii
Current Conditions -  °F | °C
As of 5:53 AM on Friday 24 Oct 2014 (Local Time) from PHTO Reporting Station
Few Clouds Few Clouds  
Wind Chill: 71°   Ceiling: Unl
Heat Index: 71°   Visibility: 10mi
Dew Point: 66°   Wind: 5mph
Humidity: 84%   Direction: 240°WSW
Pressure: 30.01"   Gusts: NA
Location:  19.4324°N, 155.258°W
Report Text: PHTO 241553Z 24004KT 10SM FEW025 FEW060 22/19 A3001 RMK AO2 SLP159 T02170189
Loading
Personal Weather Stations






























Interactive Weather Map
Tropical Storm Tracking
New forecast layout! Learn more

10-Day Weather Forecast

Advertisements
Track Severe Weather on mobile